Time;durP1;ratioP1;P1;durP2;ratioP2;P2;SDS_P1;SDS_P2;PMS_P1;PMS_P2;Temp;Humidity;BMP_temperature;BMP_pressure;BME280_temperature;BME280_humidity;BME280_pressure;Samples;Min_cycle;Max_cycle;Signal;HPM_P1;HPM_P2
2022/12/02 00:00:23;;;;;;;26.90;11.43;;;2.80;99.90;;;;;;497196;239;27594;-65
2022/12/02 00:02:25;;;;;;;16.85;9.55;;;2.80;99.90;;;;;;497214;239;27475;-65
2022/12/02 00:04:26;;;;;;;21.23;11.95;;;2.80;99.90;;;;;;497224;239;27457;-65
2022/12/02 00:06:27;;;;;;;24.70;11.43;;;2.80;99.90;;;;;;497199;239;27591;-66
2022/12/02 00:08:28;;;;;;;22.67;11.88;;;2.80;99.90;;;;;;497188;239;27886;-66
2022/12/02 00:10:30;;;;;;;20.17;10.68;;;2.80;99.90;;;;;;497201;239;27936;-65
2022/12/02 00:12:31;;;;;;;20.55;11.00;;;2.80;99.90;;;;;;497207;239;27540;-64
2022/12/02 00:14:32;;;;;;;22.40;11.98;;;2.80;99.90;;;;;;497233;239;27396;-66
2022/12/02 00:16:33;;;;;;;25.02;12.18;;;2.80;99.90;;;;;;497213;239;27507;-68
2022/12/02 00:18:35;;;;;;;22.37;11.88;;;2.80;99.90;;;;;;497186;239;27461;-65
2022/12/02 00:20:36;;;;;;;20.12;11.52;;;2.80;99.90;;;;;;497185;239;27563;-65
2022/12/02 00:22:37;;;;;;;22.73;11.35;;;2.80;99.90;;;;;;497169;239;27942;-64
2022/12/02 00:24:38;;;;;;;26.45;13.18;;;2.80;99.90;;;;;;497198;239;27959;-65
2022/12/02 00:26:40;;;;;;;23.95;11.77;;;2.80;99.90;;;;;;497200;239;27959;-67
2022/12/02 00:28:41;;;;;;;25.23;12.18;;;2.80;99.90;;;;;;497205;239;27438;-65
2022/12/02 00:30:42;;;;;;;21.67;12.02;;;2.80;99.90;;;;;;497174;239;27519;-65
2022/12/02 00:32:43;;;;;;;20.33;11.32;;;2.80;99.90;;;;;;497210;239;27485;-68
2022/12/02 00:34:45;;;;;;;25.42;13.18;;;2.80;99.90;;;;;;497165;239;27531;-65
2022/12/02 00:36:46;;;;;;;25.17;13.18;;;2.80;99.90;;;;;;497190;239;27512;-66
2022/12/02 00:38:47;;;;;;;29.85;14.98;;;2.70;99.90;;;;;;497177;239;27895;-65
2022/12/02 00:40:49;;;;;;;32.00;16.98;;;2.70;99.90;;;;;;497197;239;27978;-65
2022/12/02 00:42:50;;;;;;;32.03;15.68;;;2.60;99.90;;;;;;497223;239;27419;-68
2022/12/02 00:47:11;;;;;;;30.35;15.93;;;2.60;99.90;;;;;;497216;238;27821;-65
2022/12/02 00:49:12;;;;;;;28.27;14.40;;;2.70;99.90;;;;;;497149;239;27949;-66
2022/12/02 00:51:13;;;;;;;30.00;14.50;;;2.70;99.90;;;;;;497154;239;27544;-65
2022/12/02 00:53:15;;;;;;;36.92;16.75;;;2.80;99.90;;;;;;497181;239;27555;-65
2022/12/02 00:55:16;;;;;;;35.35;17.30;;;2.70;99.90;;;;;;497197;239;27483;-68
2022/12/02 00:57:17;;;;;;;35.13;17.85;;;2.70;99.90;;;;;;497189;239;27452;-65
2022/12/02 00:59:18;;;;;;;33.80;17.95;;;2.60;99.90;;;;;;497177;239;27490;-65
2022/12/02 01:01:20;;;;;;;31.92;15.57;;;2.60;99.90;;;;;;497186;239;28008;-65
2022/12/02 01:03:21;;;;;;;32.67;17.02;;;2.70;99.90;;;;;;497201;239;27904;-65
2022/12/02 01:05:22;;;;;;;29.15;14.63;;;2.70;99.90;;;;;;497202;239;27975;-68
2022/12/02 01:07:23;;;;;;;31.77;14.63;;;2.80;99.90;;;;;;497193;239;27427;-65
2022/12/02 01:09:25;;;;;;;29.40;14.52;;;2.80;99.90;;;;;;497199;239;27512;-66
2022/12/02 01:11:26;;;;;;;30.30;14.05;;;2.80;99.90;;;;;;497190;239;27465;-65
2022/12/02 01:13:27;;;;;;;27.73;14.05;;;2.80;99.90;;;;;;497217;239;27488;-65
2022/12/02 01:15:28;;;;;;;26.95;13.13;;;2.80;99.90;;;;;;497226;239;27690;-66
2022/12/02 01:17:30;;;;;;;26.75;12.73;;;2.80;99.90;;;;;;497203;239;27865;-65
2022/12/02 01:19:31;;;;;;;25.65;12.35;;;2.70;99.90;;;;;;497174;239;27969;-65
2022/12/02 01:21:32;;;;;;;23.65;12.70;;;2.80;99.90;;;;;;497206;239;27520;-68
2022/12/02 01:23:33;;;;;;;21.27;11.12;;;2.80;99.90;;;;;;497215;239;27583;-65
2022/12/02 01:25:36;;;;;;;28.33;15.30;;;2.80;99.90;;;;;;497174;239;27482;-66
2022/12/02 01:27:37;;;;;;;28.55;13.85;;;2.70;99.90;;;;;;497188;239;27515;-65
2022/12/02 01:29:39;;;;;;;31.17;15.13;;;2.70;99.90;;;;;;497196;239;28040;-67
2022/12/02 01:31:40;;;;;;;29.25;14.15;;;2.70;99.90;;;;;;497194;239;27974;-65
2022/12/02 01:33:41;;;;;;;27.55;13.43;;;2.70;99.90;;;;;;497194;239;27485;-65
2022/12/02 01:35:42;;;;;;;26.70;13.75;;;2.80;99.90;;;;;;497196;239;27501;-65
2022/12/02 01:37:44;;;;;;;24.30;13.40;;;2.80;99.90;;;;;;497240;239;27367;-64
2022/12/02 01:39:45;;;;;;;25.08;12.80;;;2.80;99.90;;;;;;497170;239;27507;-66
2022/12/02 01:41:46;;;;;;;28.48;13.82;;;2.80;99.90;;;;;;497206;239;27448;-65
2022/12/02 01:43:47;;;;;;;33.35;13.68;;;2.80;99.90;;;;;;497239;239;27476;-65
2022/12/02 01:45:49;;;;;;;27.17;12.20;;;2.80;99.90;;;;;;497218;239;28031;-65
2022/12/02 01:47:50;;;;;;;27.73;13.30;;;2.80;99.90;;;;;;497245;239;27893;-64
2022/12/02 01:49:51;;;;;;;21.92;11.40;;;2.80;99.90;;;;;;497215;239;27544;-67
2022/12/02 01:51:52;;;;;;;23.60;11.65;;;2.80;99.90;;;;;;497180;239;27478;-64
2022/12/02 01:53:54;;;;;;;23.20;13.80;;;2.80;99.90;;;;;;497181;239;27559;-66
2022/12/02 01:55:55;;;;;;;20.62;11.45;;;2.90;99.90;;;;;;497196;239;27493;-66
2022/12/02 01:57:56;;;;;;;25.42;12.45;;;2.90;99.90;;;;;;497208;239;27477;-65
2022/12/02 01:59:57;;;;;;;27.92;12.43;;;2.80;99.90;;;;;;497159;239;27575;-65
2022/12/02 02:01:59;;;;;;;31.25;14.82;;;2.80;99.90;;;;;;497179;239;27896;-65
2022/12/02 02:04:00;;;;;;;33.50;14.87;;;2.70;99.90;;;;;;497169;239;27923;-65
2022/12/02 02:06:01;;;;;;;32.38;14.27;;;2.70;99.90;;;;;;497221;239;27478;-69
2022/12/02 02:08:03;;;;;;;29.60;14.50;;;2.70;99.90;;;;;;497177;239;27396;-65
2022/12/02 02:10:04;;;;;;;31.90;14.90;;;2.70;99.90;;;;;;497182;239;27488;-65
2022/12/02 02:12:05;;;;;;;28.25;15.05;;;2.70;99.90;;;;;;497179;239;27519;-65
2022/12/02 02:14:06;;;;;;;26.77;13.38;;;2.70;99.90;;;;;;497199;239;27543;-65
2022/12/02 02:16:08;;;;;;;27.95;13.75;;;2.70;99.90;;;;;;497203;239;27931;-67
2022/12/02 02:18:09;;;;;;;28.65;13.35;;;2.70;99.90;;;;;;497189;239;29064;-65
2022/12/02 02:20:10;;;;;;;25.27;13.82;;;2.70;99.90;;;;;;497168;239;27519;-65
2022/12/02 02:22:11;;;;;;;28.58;14.13;;;2.70;99.90;;;;;;497213;239;27397;-67
2022/12/02 02:24:13;;;;;;;32.10;13.65;;;2.60;99.90;;;;;;497212;239;27471;-65
2022/12/02 02:26:14;;;;;;;27.05;13.40;;;2.70;99.90;;;;;;497190;239;27570;-67
2022/12/02 02:28:15;;;;;;;26.62;13.88;;;2.80;99.90;;;;;;497190;239;27535;-65
2022/12/02 02:30:16;;;;;;;26.62;13.35;;;2.70;99.90;;;;;;497170;239;27502;-66
2022/12/02 02:32:18;;;;;;;27.85;14.23;;;2.70;99.90;;;;;;497195;239;28367;-68
2022/12/02 02:34:19;;;;;;;30.05;15.70;;;2.70;99.90;;;;;;497224;239;27452;-65
2022/12/02 02:36:20;;;;;;;27.52;12.70;;;2.70;99.90;;;;;;497185;239;27956;-66
2022/12/02 02:38:21;;;;;;;36.05;15.90;;;2.70;99.90;;;;;;497205;239;27978;-65
2022/12/02 02:40:23;;;;;;;28.75;13.93;;;2.70;99.90;;;;;;497152;239;27959;-64
2022/12/02 02:42:24;;;;;;;29.35;15.48;;;2.80;99.90;;;;;;497199;239;27596;-68
2022/12/02 02:44:25;;;;;;;39.25;19.33;;;2.70;99.90;;;;;;497181;239;27441;-65
2022/12/02 02:46:26;;;;;;;37.63;19.33;;;2.50;99.90;;;;;;497173;239;27479;-65
2022/12/02 02:48:28;;;;;;;34.10;17.27;;;2.60;99.90;;;;;;497138;239;27592;-65
2022/12/02 02:50:29;;;;;;;41.80;19.27;;;2.60;99.90;;;;;;497178;239;27452;-64
2022/12/02 02:52:30;;;;;;;35.13;16.90;;;2.60;99.90;;;;;;497198;239;27894;-67
2022/12/02 02:54:31;;;;;;;33.90;17.50;;;2.60;99.90;;;;;;497184;239;27895;-64
2022/12/02 02:56:33;;;;;;;32.95;15.15;;;2.60;99.90;;;;;;497175;239;27586;-65
2022/12/02 02:58:34;;;;;;;38.15;17.05;;;2.70;99.90;;;;;;497177;239;27491;-65
2022/12/02 03:00:35;;;;;;;33.35;15.20;;;2.70;99.90;;;;;;497200;239;27460;-65
2022/12/02 03:02:36;;;;;;;32.45;15.13;;;2.70;99.90;;;;;;497084;239;27602;-66
2022/12/02 03:04:38;;;;;;;31.35;14.38;;;2.70;99.90;;;;;;496972;238;27527;-65
2022/12/02 03:06:39;;;;;;;38.30;17.25;;;2.70;99.90;;;;;;496930;239;27515;-65
2022/12/02 03:08:40;;;;;;;34.67;17.17;;;2.60;99.90;;;;;;496969;239;28264;-65
2022/12/02 03:10:42;;;;;;;37.17;17.77;;;2.60;99.90;;;;;;497074;239;28004;-65
2022/12/02 03:12:43;;;;;;;33.70;16.40;;;2.60;99.90;;;;;;497157;239;27579;-65
2022/12/02 03:14:44;;;;;;;35.08;16.48;;;2.60;99.90;;;;;;497179;239;27440;-65
2022/12/02 03:16:45;;;;;;;29.70;15.73;;;2.70;99.90;;;;;;497160;239;27571;-65
2022/12/02 03:18:48;;;;;;;33.63;16.42;;;2.70;99.90;;;;;;497174;239;27618;-68
2022/12/02 03:20:49;;;;;;;35.55;15.50;;;2.70;99.90;;;;;;497173;239;27504;-67
2022/12/02 03:22:50;;;;;;;32.10;16.50;;;2.60;99.90;;;;;;497145;239;27924;-65
2022/12/02 03:24:52;;;;;;;39.95;17.55;;;2.60;99.90;;;;;;497188;239;27902;-65
2022/12/02 03:26:53;;;;;;;40.97;19.67;;;2.60;99.90;;;;;;497214;239;28037;-68
2022/12/02 03:28:54;;;;;;;34.10;16.80;;;2.60;99.90;;;;;;497228;239;27451;-65
2022/12/02 03:30:55;;;;;;;42.53;19.62;;;2.60;99.90;;;;;;497208;239;27393;-66
2022/12/02 03:32:57;;;;;;;42.30;18.80;;;2.60;99.90;;;;;;497169;239;27439;-65
2022/12/02 03:34:58;;;;;;;43.90;20.67;;;2.60;99.90;;;;;;497150;239;27464;-64
2022/12/02 03:36:59;;;;;;;46.00;20.42;;;2.50;99.90;;;;;;497192;239;27480;-68
2022/12/02 03:39:00;;;;;;;44.08;20.58;;;2.50;99.90;;;;;;497190;239;27968;-65
2022/12/02 03:41:02;;;;;;;45.50;22.35;;;2.40;99.90;;;;;;497182;239;29066;-65
2022/12/02 03:43:03;;;;;;;55.10;23.30;;;2.40;99.90;;;;;;497181;239;27487;-64
2022/12/02 03:45:04;;;;;;;53.72;23.00;;;2.40;99.90;;;;;;497161;239;27449;-65
2022/12/02 03:47:05;;;;;;;51.22;22.62;;;2.40;99.90;;;;;;497216;239;27481;-68
2022/12/02 03:49:07;;;;;;;40.63;19.25;;;2.40;99.90;;;;;;497210;239;27436;-65
2022/12/02 03:51:08;;;;;;;41.37;19.67;;;2.40;99.90;;;;;;497210;239;27602;-65
2022/12/02 03:53:09;;;;;;;41.15;19.83;;;2.50;99.90;;;;;;497214;239;27538;-64
2022/12/02 03:55:10;;;;;;;41.50;18.73;;;2.60;99.90;;;;;;497236;239;27976;-65
2022/12/02 03:57:12;;;;;;;37.75;18.65;;;2.70;99.90;;;;;;497191;239;28053;-67
2022/12/02 03:59:13;;;;;;;42.72;18.65;;;2.60;99.90;;;;;;497185;239;27493;-65
2022/12/02 04:01:14;;;;;;;40.40;19.60;;;2.60;99.90;;;;;;497160;239;27499;-66
2022/12/02 04:03:15;;;;;;;41.53;18.70;;;2.60;99.90;;;;;;497148;239;27453;-66
2022/12/02 04:05:17;;;;;;;39.00;18.55;;;2.60;99.90;;;;;;497182;239;27445;-65
2022/12/02 04:07:18;;;;;;;35.75;17.17;;;2.60;99.90;;;;;;497182;239;27567;-67
2022/12/02 04:09:19;;;;;;;35.45;17.05;;;2.70;99.90;;;;;;497182;239;27831;-65
2022/12/02 04:11:20;;;;;;;34.42;17.25;;;2.60;99.90;;;;;;497176;239;27934;-65
2022/12/02 04:13:22;;;;;;;35.55;17.92;;;2.60;99.90;;;;;;497181;239;28148;-65
2022/12/02 04:15:23;;;;;;;37.80;17.58;;;2.60;99.90;;;;;;497184;239;27485;-64
2022/12/02 04:17:24;;;;;;;42.25;18.70;;;2.60;99.90;;;;;;497191;239;27643;-66
2022/12/02 04:19:25;;;;;;;40.22;18.42;;;2.60;99.90;;;;;;497169;239;27445;-64
2022/12/02 04:21:27;;;;;;;39.08;17.08;;;2.60;99.90;;;;;;497159;239;27491;-64
2022/12/02 04:23:28;;;;;;;32.10;17.20;;;2.60;99.90;;;;;;497179;239;27910;-68
2022/12/02 04:25:29;;;;;;;37.35;17.33;;;2.60;99.90;;;;;;497184;239;27906;-65
2022/12/02 04:27:31;;;;;;;46.00;19.15;;;2.60;99.90;;;;;;497172;239;27976;-66
2022/12/02 04:29:32;;;;;;;42.20;19.08;;;2.60;99.90;;;;;;497176;239;27527;-64
2022/12/02 04:31:33;;;;;;;39.60;19.08;;;2.60;99.90;;;;;;497149;239;27483;-65
2022/12/02 04:33:34;;;;;;;43.20;19.90;;;2.60;99.90;;;;;;497227;239;27593;-68
2022/12/02 04:35:36;;;;;;;40.72;17.60;;;2.50;99.90;;;;;;497260;239;27444;-65
2022/12/02 04:37:37;;;;;;;36.72;17.67;;;2.60;99.90;;;;;;497187;239;28451;-65
2022/12/02 04:39:38;;;;;;;45.78;20.20;;;2.60;99.90;;;;;;497166;239;27896;-64
2022/12/02 04:41:39;;;;;;;44.10;20.75;;;2.50;99.90;;;;;;497213;239;27892;-65
2022/12/02 04:43:41;;;;;;;42.80;19.87;;;2.50;99.90;;;;;;497210;239;27496;-67
2022/12/02 04:45:42;;;;;;;39.80;18.87;;;2.60;99.90;;;;;;497193;239;27544;-65
2022/12/02 04:47:43;;;;;;;38.50;17.25;;;2.60;99.90;;;;;;497174;239;27497;-65
2022/12/02 04:49:44;;;;;;;35.25;16.45;;;2.60;99.90;;;;;;497209;239;27449;-65
2022/12/02 04:51:46;;;;;;;38.05;16.92;;;2.60;99.90;;;;;;497215;239;27532;-65
2022/12/02 04:53:47;;;;;;;32.47;16.37;;;2.60;99.90;;;;;;497201;239;28003;-67
2022/12/02 04:55:48;;;;;;;41.70;19.10;;;2.60;99.90;;;;;;497176;239;29054;-66
2022/12/02 04:57:49;;;;;;;47.20;21.10;;;2.50;99.90;;;;;;497185;239;27477;-65
2022/12/02 04:59:51;;;;;;;48.47;23.65;;;2.50;99.90;;;;;;497199;239;27444;-65
2022/12/02 05:01:52;;;;;;;50.60;21.85;;;2.40;99.90;;;;;;497232;239;27540;-64
2022/12/02 05:03:53;;;;;;;41.55;19.73;;;2.50;99.90;;;;;;497224;239;27516;-67
2022/12/02 05:05:55;;;;;;;41.47;18.77;;;2.50;99.90;;;;;;497197;239;27528;-65
2022/12/02 05:07:56;;;;;;;37.20;18.42;;;2.60;99.90;;;;;;497203;239;27499;-65
2022/12/02 05:09:57;;;;;;;40.53;19.33;;;2.60;99.90;;;;;;497213;239;28648;-65
2022/12/02 05:11:58;;;;;;;43.85;19.23;;;2.50;99.90;;;;;;497230;239;27989;-65
2022/12/02 05:14:00;;;;;;;39.05;18.83;;;2.60;99.90;;;;;;497219;239;27618;-67
2022/12/02 05:16:01;;;;;;;45.83;19.92;;;2.60;99.90;;;;;;497170;239;27462;-65
2022/12/02 05:18:02;;;;;;;42.17;18.92;;;2.50;99.90;;;;;;497174;239;27493;-66
2022/12/02 05:20:03;;;;;;;49.42;21.20;;;2.50;99.90;;;;;;497158;239;27495;-65
2022/12/02 05:22:05;;;;;;;42.25;19.90;;;2.40;99.90;;;;;;497210;239;27531;-64
2022/12/02 05:24:06;;;;;;;40.72;20.23;;;2.50;99.90;;;;;;497205;239;27909;-66
2022/12/02 05:26:07;;;;;;;39.00;19.95;;;2.50;99.90;;;;;;497174;239;27963;-65
2022/12/02 05:28:08;;;;;;;46.25;20.20;;;2.50;99.90;;;;;;497188;239;27940;-65
2022/12/02 05:30:10;;;;;;;44.58;21.62;;;2.40;99.90;;;;;;497216;239;27490;-70
2022/12/02 05:32:11;;;;;;;49.85;20.83;;;2.40;99.90;;;;;;497211;239;27457;-65
2022/12/02 05:34:12;;;;;;;44.70;19.95;;;2.50;99.90;;;;;;497216;239;27512;-66
2022/12/02 05:36:13;;;;;;;41.55;19.60;;;2.60;99.90;;;;;;497188;239;27582;-65
2022/12/02 05:38:15;;;;;;;47.38;21.17;;;2.50;99.90;;;;;;497173;239;27485;-65
2022/12/02 05:40:16;;;;;;;51.67;22.20;;;2.50;99.90;;;;;;497210;239;27896;-68
2022/12/02 05:42:17;;;;;;;44.33;21.05;;;2.40;99.90;;;;;;497212;239;28049;-64
2022/12/02 05:44:18;;;;;;;44.35;20.92;;;2.50;99.90;;;;;;497192;239;27481;-66
2022/12/02 05:46:20;;;;;;;47.42;19.45;;;2.40;99.90;;;;;;497084;239;27588;-64
2022/12/02 05:48:21;;;;;;;51.90;23.50;;;2.50;99.90;;;;;;497202;239;27546;-65
2022/12/02 05:50:22;;;;;;;45.28;22.52;;;2.60;99.90;;;;;;497215;239;27460;-68
2022/12/02 05:52:23;;;;;;;55.47;22.92;;;2.50;99.90;;;;;;496986;239;27491;-65
2022/12/02 05:54:25;;;;;;;57.62;24.15;;;2.40;99.90;;;;;;497184;239;27476;-65
2022/12/02 05:56:26;;;;;;;50.72;22.33;;;2.40;99.90;;;;;;497164;239;27952;-65
2022/12/02 05:58:27;;;;;;;58.15;23.83;;;2.50;99.90;;;;;;497210;239;27865;-64
2022/12/02 06:00:28;;;;;;;54.80;22.90;;;2.40;99.90;;;;;;497183;239;27465;-68
2022/12/02 06:02:30;;;;;;;52.47;23.35;;;2.40;99.90;;;;;;497195;239;27544;-64
2022/12/02 06:04:31;;;;;;;54.10;22.48;;;2.40;99.90;;;;;;497186;239;27487;-65
2022/12/02 06:06:32;;;;;;;50.92;22.62;;;2.50;99.90;;;;;;497193;239;27492;-65
2022/12/02 06:08:34;;;;;;;51.13;22.67;;;2.40;99.90;;;;;;497204;239;27486;-65
2022/12/02 06:10:35;;;;;;;52.92;22.75;;;2.40;99.90;;;;;;497186;239;27976;-66
2022/12/02 06:12:36;;;;;;;57.83;24.12;;;2.40;99.90;;;;;;497179;239;27905;-66
2022/12/02 06:14:37;;;;;;;53.08;21.95;;;2.40;99.90;;;;;;497155;239;28055;-65
2022/12/02 06:16:38;;;;;;;52.55;23.17;;;2.40;99.90;;;;;;497202;239;27433;-65
2022/12/02 06:18:40;;;;;;;49.90;22.33;;;2.40;99.90;;;;;;497194;239;27444;-65
2022/12/02 06:20:41;;;;;;;57.60;24.42;;;2.40;99.90;;;;;;497162;239;27484;-66
2022/12/02 06:22:42;;;;;;;50.28;22.87;;;2.40;99.90;;;;;;497171;239;27507;-64
2022/12/02 06:24:44;;;;;;;49.92;21.75;;;2.40;99.90;;;;;;497176;239;27606;-65
2022/12/02 06:26:45;;;;;;;49.58;21.98;;;2.40;99.90;;;;;;497207;239;27984;-68
2022/12/02 06:28:46;;;;;;;44.45;20.60;;;2.40;99.90;;;;;;497195;239;27843;-65
2022/12/02 06:30:47;;;;;;;47.67;23.10;;;2.40;99.90;;;;;;497180;239;27504;-65
2022/12/02 06:32:49;;;;;;;47.90;21.73;;;2.40;99.90;;;;;;497178;239;27440;-65
2022/12/02 06:34:50;;;;;;;47.42;22.52;;;2.40;99.90;;;;;;497185;239;27501;-66
2022/12/02 06:36:53;;;;;;;57.17;22.65;;;2.40;99.90;;;;;;497194;239;27504;-67
2022/12/02 06:38:54;;;;;;;50.88;21.42;;;2.30;99.90;;;;;;497184;239;27495;-65
2022/12/02 06:40:55;;;;;;;48.67;21.62;;;2.30;99.90;;;;;;497087;239;28412;-68
2022/12/02 06:42:56;;;;;;;47.70;22.60;;;2.30;99.90;;;;;;497198;239;27445;-65
2022/12/02 06:45:04;;;;;;;52.70;21.12;;;2.40;99.90;;;;;;497066;239;27576;-65
2022/12/02 06:47:05;;;;;;;48.87;20.98;;;2.40;99.90;;;;;;497177;239;27562;-65
2022/12/02 06:49:06;;;;;;;54.08;21.65;;;2.40;99.90;;;;;;497165;239;27528;-65
2022/12/02 06:51:07;;;;;;;49.50;21.50;;;2.40;99.90;;;;;;497200;239;27956;-68
2022/12/02 06:53:09;;;;;;;49.20;22.33;;;2.30;99.90;;;;;;497178;239;27975;-65
2022/12/02 06:55:10;;;;;;;49.30;22.10;;;2.30;99.90;;;;;;497192;239;27579;-65
2022/12/02 06:57:11;;;;;;;50.00;22.73;;;2.30;99.90;;;;;;497171;239;27445;-66
2022/12/02 06:59:12;;;;;;;49.78;22.23;;;2.40;99.90;;;;;;497194;239;27535;-65
2022/12/02 07:01:14;;;;;;;46.37;20.08;;;2.30;99.90;;;;;;497179;239;27883;-66
2022/12/02 07:03:15;;;;;;;50.10;22.50;;;2.40;99.90;;;;;;497189;239;27456;-64
2022/12/02 07:05:16;;;;;;;47.88;22.02;;;2.40;99.90;;;;;;497164;239;28038;-70
2022/12/02 07:07:17;;;;;;;46.30;21.23;;;2.30;99.90;;;;;;497173;239;28725;-65
2022/12/02 07:09:19;;;;;;;51.22;21.12;;;2.30;99.90;;;;;;497222;239;27468;-65
2022/12/02 07:11:20;;;;;;;46.55;19.70;;;2.40;99.90;;;;;;497195;239;27492;-66
2022/12/02 07:13:21;;;;;;;49.85;21.27;;;2.40;99.90;;;;;;497197;239;27445;-65
2022/12/02 07:15:22;;;;;;;51.35;21.58;;;2.30;99.90;;;;;;497161;239;27601;-65
2022/12/02 07:17:24;;;;;;;52.33;24.05;;;2.30;99.90;;;;;;497214;239;27501;-67
2022/12/02 07:19:25;;;;;;;56.50;24.65;;;2.30;99.90;;;;;;497222;239;27536;-65
2022/12/02 07:21:26;;;;;;;47.05;20.83;;;2.30;99.90;;;;;;497195;239;27929;-66
2022/12/02 07:23:28;;;;;;;50.85;22.55;;;2.30;99.90;;;;;;497186;239;27890;-65
2022/12/02 07:25:29;;;;;;;47.65;21.45;;;2.40;99.90;;;;;;497179;238;27502;-65
2022/12/02 07:27:30;;;;;;;49.17;22.02;;;2.30;99.90;;;;;;497203;239;27491;-66
2022/12/02 07:29:31;;;;;;;54.72;22.45;;;2.30;99.90;;;;;;497172;239;27527;-65
2022/12/02 07:31:33;;;;;;;51.00;22.73;;;2.30;99.90;;;;;;497130;239;27488;-66
2022/12/02 07:33:34;;;;;;;45.30;21.37;;;2.40;99.90;;;;;;497142;239;27512;-65
2022/12/02 07:35:35;;;;;;;46.72;20.05;;;2.40;99.90;;;;;;497148;239;27499;-65
2022/12/02 07:37:36;;;;;;;50.45;22.00;;;2.50;99.90;;;;;;497077;239;27964;-68
2022/12/02 07:39:38;;;;;;;52.20;21.80;;;2.50;99.90;;;;;;497185;239;27564;-65
2022/12/02 07:41:39;;;;;;;56.92;21.77;;;2.40;99.90;;;;;;497121;239;27500;-65
2022/12/02 07:43:40;;;;;;;53.90;23.48;;;2.40;99.90;;;;;;497166;239;27433;-65
2022/12/02 07:45:41;;;;;;;59.28;23.23;;;2.30;99.90;;;;;;497169;239;28019;-65
2022/12/02 07:47:43;;;;;;;55.03;23.20;;;2.30;99.90;;;;;;497173;239;27389;-68
2022/12/02 07:49:44;;;;;;;54.28;22.27;;;2.30;99.90;;;;;;497194;239;27571;-65
2022/12/02 07:51:45;;;;;;;52.75;22.00;;;2.30;99.90;;;;;;497169;239;27598;-66
2022/12/02 07:53:46;;;;;;;61.08;23.40;;;2.40;99.90;;;;;;497158;239;27546;-65
2022/12/02 07:55:48;;;;;;;56.72;25.45;;;2.30;99.90;;;;;;497206;239;27512;-65
2022/12/02 07:57:49;;;;;;;60.15;24.63;;;2.30;99.90;;;;;;497182;239;27504;-67
2022/12/02 07:59:50;;;;;;;62.42;23.90;;;2.30;99.90;;;;;;497197;239;27456;-65
2022/12/02 08:01:52;;;;;;;68.07;24.60;;;2.30;99.90;;;;;;497161;239;27980;-65
2022/12/02 08:03:53;;;;;;;67.03;24.42;;;2.20;99.90;;;;;;497176;239;28012;-65
2022/12/02 08:05:54;;;;;;;60.38;23.58;;;2.30;99.90;;;;;;497215;239;27384;-65
2022/12/02 08:07:55;;;;;;;66.68;24.40;;;2.30;99.90;;;;;;497221;239;27477;-67
2022/12/02 08:09:57;;;;;;;58.00;23.15;;;2.30;99.90;;;;;;497192;239;27453;-64
2022/12/02 08:11:58;;;;;;;60.85;25.27;;;2.30;99.90;;;;;;497192;239;27491;-65
2022/12/02 08:13:59;;;;;;;60.10;24.87;;;2.40;99.90;;;;;;497151;239;27446;-64
2022/12/02 08:16:00;;;;;;;60.97;24.80;;;2.40;99.90;;;;;;497234;238;27608;-65
2022/12/02 08:18:02;;;;;;;58.15;24.25;;;2.40;99.90;;;;;;497240;239;28078;-67
2022/12/02 08:20:03;;;;;;;52.40;22.95;;;2.30;99.90;;;;;;497198;239;27974;-64
2022/12/02 08:22:04;;;;;;;53.45;23.02;;;2.30;99.90;;;;;;497210;239;27586;-65
2022/12/02 08:24:05;;;;;;;54.05;22.13;;;2.30;99.90;;;;;;497167;239;27572;-65
2022/12/02 08:26:07;;;;;;;56.15;23.70;;;2.30;99.90;;;;;;497217;239;27439;-65
2022/12/02 08:28:08;;;;;;;55.00;23.15;;;2.30;99.90;;;;;;497225;239;27557;-66
2022/12/02 08:30:11;;;;;;;48.33;22.73;;;2.30;99.90;;;;;;497213;239;27352;-65
2022/12/02 08:32:10;;;;;;;53.20;24.45;;;2.20;99.90;;;;;;497124;239;27984;-66
2022/12/02 08:34:12;;;;;;;53.20;24.35;;;2.30;99.90;;;;;;497202;239;28694;-65
2022/12/02 08:36:14;;;;;;;57.33;24.00;;;2.20;99.90;;;;;;497224;239;27349;-66
2022/12/02 08:38:14;;;;;;;54.90;23.08;;;2.30;99.90;;;;;;497170;239;27626;-67
2022/12/02 08:40:15;;;;;;;48.90;20.88;;;2.30;99.90;;;;;;497212;239;27364;-65
2022/12/02 08:42:17;;;;;;;52.45;21.58;;;2.40;99.90;;;;;;497181;239;27567;-65
2022/12/02 08:44:18;;;;;;;44.65;20.27;;;2.30;99.90;;;;;;497215;239;27463;-64
2022/12/02 08:46:19;;;;;;;54.17;22.05;;;2.40;99.90;;;;;;497240;239;27428;-65
2022/12/02 08:48:20;;;;;;;58.35;23.10;;;2.30;99.90;;;;;;497222;239;27945;-67
2022/12/02 08:50:22;;;;;;;53.03;21.50;;;2.30;99.90;;;;;;497215;239;27865;-64
2022/12/02 08:52:23;;;;;;;48.92;21.73;;;2.20;99.90;;;;;;497106;239;27473;-65
2022/12/02 08:54:24;;;;;;;50.17;22.25;;;2.30;99.90;;;;;;497184;239;27488;-65
2022/12/02 08:56:25;;;;;;;48.53;19.98;;;2.30;99.90;;;;;;497207;239;27450;-65
2022/12/02 08:58:27;;;;;;;47.55;20.67;;;2.30;99.90;;;;;;497208;239;27579;-67
2022/12/02 09:00:28;;;;;;;53.35;22.33;;;2.30;99.90;;;;;;497203;239;27560;-65
2022/12/02 09:02:29;;;;;;;52.67;20.88;;;2.20;99.90;;;;;;497193;239;27527;-65
2022/12/02 09:04:30;;;;;;;56.78;23.08;;;2.30;99.90;;;;;;497200;238;28158;-68
2022/12/02 09:06:32;;;;;;;58.35;21.98;;;2.20;99.90;;;;;;497203;239;27448;-65
2022/12/02 09:08:33;;;;;;;53.83;23.20;;;2.30;99.90;;;;;;497211;239;27508;-66
2022/12/02 09:10:34;;;;;;;60.30;22.62;;;2.30;99.90;;;;;;497174;239;27553;-65
2022/12/02 09:12:36;;;;;;;55.97;22.33;;;2.30;99.90;;;;;;497179;239;27480;-65
2022/12/02 09:14:38;;;;;;;52.15;21.45;;;2.30;99.90;;;;;;497222;239;27401;-68
2022/12/02 09:16:40;;;;;;;55.22;22.33;;;2.40;99.90;;;;;;497157;239;27586;-65
2022/12/02 09:18:41;;;;;;;56.53;21.98;;;2.40;99.90;;;;;;497203;239;28415;-68
2022/12/02 09:20:42;;;;;;;46.42;20.35;;;2.30;99.90;;;;;;497213;239;27364;-65
2022/12/02 09:22:46;;;;;;;44.22;20.17;;;2.30;99.90;;;;;;497178;239;27563;-67
2022/12/02 09:24:48;;;;;;;47.20;19.58;;;2.40;99.90;;;;;;497193;239;27948;-65
2022/12/02 09:26:49;;;;;;;56.63;22.45;;;2.40;99.90;;;;;;497183;239;28101;-65
2022/12/02 09:28:50;;;;;;;52.47;22.17;;;2.20;99.90;;;;;;495053;239;46853;-65
2022/12/02 09:30:51;;;;;;;53.58;22.02;;;2.30;99.90;;;;;;497217;239;27583;-68
2022/12/02 09:32:53;;;;;;;53.33;22.23;;;2.30;99.90;;;;;;497187;239;27473;-65
2022/12/02 09:34:55;;;;;;;54.70;22.73;;;2.30;99.90;;;;;;497188;239;27480;-65
2022/12/02 09:36:55;;;;;;;47.88;21.35;;;2.10;99.90;;;;;;497010;239;27550;-65
2022/12/02 09:38:56;;;;;;;53.05;22.37;;;2.20;99.90;;;;;;497114;239;27956;-65
2022/12/02 09:40:58;;;;;;;57.72;21.10;;;2.20;99.90;;;;;;497178;238;27984;-69
2022/12/02 09:42:59;;;;;;;63.58;22.65;;;2.20;99.90;;;;;;497186;239;27456;-65
2022/12/02 09:45:00;;;;;;;52.55;21.20;;;2.30;99.90;;;;;;497192;239;27483;-66
2022/12/02 09:47:01;;;;;;;49.88;21.65;;;2.40;99.90;;;;;;497187;239;27528;-65
2022/12/02 09:49:03;;;;;;;54.20;21.83;;;2.30;99.90;;;;;;497167;239;27547;-65
2022/12/02 09:51:04;;;;;;;55.65;22.77;;;2.30;99.90;;;;;;497209;239;27520;-68
2022/12/02 09:53:05;;;;;;;54.92;22.30;;;2.20;99.90;;;;;;497183;239;27595;-65
2022/12/02 09:55:06;;;;;;;52.78;21.80;;;2.30;99.90;;;;;;497174;239;27936;-65
2022/12/02 09:57:08;;;;;;;48.58;20.92;;;2.20;99.90;;;;;;497172;239;27983;-65
2022/12/02 09:59:09;;;;;;;56.25;21.40;;;2.20;99.90;;;;;;497182;239;27465;-65
2022/12/02 10:01:10;;;;;;;60.55;22.70;;;2.20;99.90;;;;;;497203;239;27560;-68
2022/12/02 10:03:11;;;;;;;52.62;22.50;;;2.20;99.90;;;;;;497192;239;27460;-65
2022/12/02 10:05:13;;;;;;;55.00;20.95;;;2.10;99.90;;;;;;497205;239;27480;-66
2022/12/02 10:07:14;;;;;;;56.30;21.37;;;2.20;99.90;;;;;;497194;239;27468;-65
2022/12/02 10:09:15;;;;;;;50.20;20.80;;;2.30;99.90;;;;;;497156;239;27993;-66
2022/12/02 10:11:16;;;;;;;52.92;21.35;;;2.30;99.90;;;;;;497174;239;27959;-68
2022/12/02 10:13:18;;;;;;;62.30;21.65;;;2.10;99.90;;;;;;497192;239;28063;-65
2022/12/02 10:15:19;;;;;;;61.45;23.48;;;2.10;99.90;;;;;;497166;239;27598;-65
2022/12/02 10:17:20;;;;;;;58.90;24.52;;;2.10;99.90;;;;;;497199;239;27530;-65
2022/12/02 10:19:21;;;;;;;53.85;22.62;;;2.20;99.90;;;;;;497171;239;27468;-65
2022/12/02 10:21:23;;;;;;;58.03;22.50;;;2.10;99.90;;;;;;497225;239;27606;-68
2022/12/02 10:23:24;;;;;;;61.28;20.77;;;2.00;99.90;;;;;;497155;239;27464;-65